createdAt,value
2019-04-23T00:01:59.763Z,6.23
2019-04-23T00:04:26.516Z,6.35
2019-04-23T00:07:13.020Z,6.47
2019-04-23T00:09:32.925Z,6.33
2019-04-23T00:12:11.351Z,6.60
2019-04-23T00:14:38.244Z,6.27
2019-04-23T00:17:15.047Z,6.20
2019-04-23T00:19:48.538Z,6.03
2019-04-23T00:22:36.690Z,6.23
2019-04-23T00:25:45.295Z,6.20
2019-04-23T00:28:02.465Z,6.13
2019-04-23T00:30:38.568Z,6.27
2019-04-23T00:33:05.863Z,6.37
2019-04-23T00:35:41.737Z,6.40
2019-04-23T00:38:13.950Z,6.13
2019-04-23T00:40:46.789Z,6.35
2019-04-23T00:43:22.883Z,6.80
2019-04-23T00:45:50.251Z,6.60
2019-04-23T00:48:45.555Z,6.50
2019-04-23T00:50:56.201Z,6.83
2019-04-23T00:53:26.706Z,6.53
2019-04-23T00:56:26.337Z,6.30
2019-04-23T00:58:42.031Z,6.70
2019-04-23T01:01:11.547Z,6.20
2019-04-23T01:03:50.671Z,6.33
2019-04-23T01:08:55.189Z,6.10
2019-04-23T01:11:27.954Z,6.55
2019-04-23T01:14:04.333Z,5.83
2019-04-23T01:16:32.882Z,5.67
2019-04-23T01:19:20.578Z,6.30
2019-04-23T01:21:30.994Z,5.90
2019-04-23T01:24:29.717Z,5.57
2019-04-23T01:27:41.528Z,6.07
2019-04-23T01:30:04.768Z,6.43
2019-04-23T01:32:38.147Z,5.77
2019-04-23T01:35:17.756Z,6.40
2019-04-23T01:37:41.251Z,6.03
2019-04-23T01:40:34.851Z,6.60
2019-04-23T01:42:45.008Z,6.80
2019-04-23T01:47:54.807Z,7.50
2019-04-23T01:50:27.968Z,7.50
2019-04-23T01:53:13.732Z,7.67
2019-04-23T01:55:33.032Z,7.17
2019-04-23T02:00:43.263Z,7.30
2019-04-23T02:03:16.610Z,6.67
2019-04-23T02:05:48.342Z,7.20
2019-04-23T02:08:20.980Z,7.10
2019-04-23T02:10:56.304Z,6.37
2019-04-23T02:13:31.264Z,6.80
2019-04-23T02:18:37.419Z,6.43
2019-04-23T02:21:15.277Z,6.00
2019-04-23T02:23:56.870Z,7.33
2019-04-23T02:26:34.306Z,6.90
2019-04-23T02:29:26.631Z,7.10
2019-04-23T02:31:58.081Z,6.50
2019-04-23T02:34:31.309Z,6.67
2019-04-23T02:39:29.322Z,7.05
2019-04-23T02:47:23.513Z,7.03
2019-04-23T02:52:16.080Z,6.83
2019-04-23T02:54:50.405Z,7.33
2019-04-23T02:57:24.671Z,7.10
2019-04-23T03:07:39.355Z,7.47
2019-04-23T03:10:08.171Z,7.23
2019-04-23T03:18:39.252Z,7.50
2019-04-23T03:24:13.432Z,7.27
2019-04-23T03:26:47.801Z,7.70
2019-04-23T03:29:21.231Z,7.60
2019-04-23T03:39:30.519Z,8.05
2019-04-23T03:42:11.602Z,7.87
2019-04-23T03:44:51.631Z,7.97
2019-04-23T03:47:01.740Z,7.95
2019-04-23T03:49:40.863Z,8.17
2019-04-23T03:52:21.260Z,7.47
2019-04-23T03:57:18.325Z,7.30
2019-04-23T04:04:45.301Z,8.27
2019-04-23T04:07:49.337Z,8.50
2019-04-23T04:09:52.056Z,8.43
2019-04-23T04:17:35.533Z,9.07
2019-04-23T04:20:19.629Z,8.33
2019-04-23T04:23:15.475Z,7.83
2019-04-23T04:25:30.696Z,8.00
2019-04-23T04:30:27.235Z,8.10
2019-04-23T04:35:27.477Z,8.13
2019-04-23T04:38:38.513Z,8.20
2019-04-23T04:40:55.284Z,8.87
2019-04-23T04:43:34.939Z,8.67
2019-04-23T04:46:15.121Z,8.27
2019-04-23T04:48:33.386Z,8.73
2019-04-23T04:53:58.106Z,8.03
2019-04-23T04:58:53.030Z,8.83
2019-04-23T05:01:25.477Z,8.20
2019-04-23T05:03:43.344Z,8.43
2019-04-23T05:09:02.256Z,8.57
2019-04-23T05:11:44.039Z,7.97
2019-04-23T05:14:25.561Z,8.53
2019-04-23T05:16:33.682Z,8.20
2019-04-23T05:19:35.410Z,8.43
2019-04-23T05:21:53.963Z,7.90
2019-04-23T05:24:22.069Z,8.13
2019-04-23T05:26:55.442Z,8.33
2019-04-23T05:29:20.368Z,7.90
2019-04-23T05:32:02.826Z,8.67
2019-04-23T05:34:32.138Z,8.07
2019-04-23T05:37:06.146Z,8.47
2019-04-23T05:42:15.779Z,7.78
2019-04-23T05:44:50.251Z,7.53
2019-04-23T05:47:25.498Z,8.27
2019-04-23T05:49:53.947Z,8.17
2019-04-23T05:52:27.886Z,8.03
2019-04-23T05:55:04.085Z,7.60
2019-04-23T05:57:28.486Z,8.38
2019-04-23T06:00:02.428Z,7.40
2019-04-23T06:02:45.822Z,7.50
2019-04-23T06:05:08.890Z,7.40
2019-04-23T06:07:44.084Z,7.47
2019-04-23T06:10:23.404Z,8.17
2019-04-23T06:12:50.664Z,7.60
2019-04-23T06:15:30.322Z,7.77
2019-04-23T06:18:01.962Z,7.67
2019-04-23T06:20:35.010Z,7.50
2019-04-23T06:23:09.188Z,7.10
2019-04-23T06:25:49.615Z,7.53
2019-04-23T06:28:19.769Z,7.57
2019-04-23T06:30:46.775Z,7.83
2019-04-23T06:33:20.926Z,7.97
2019-04-23T06:35:50.327Z,7.80
2019-04-23T06:38:41.241Z,7.23
2019-04-23T06:40:59.497Z,7.60
2019-04-23T06:43:56.402Z,7.47
2019-04-23T06:46:39.908Z,7.80
2019-04-23T06:49:02.371Z,7.83
2019-04-23T06:51:48.062Z,7.43
2019-04-23T06:54:13.707Z,6.87
2019-04-23T06:56:54.241Z,7.67
2019-04-23T06:59:17.087Z,7.57
2019-04-23T07:04:28.921Z,7.13
2019-04-23T07:07:15.121Z,7.50
2019-04-23T07:09:37.306Z,7.53
2019-04-23T07:12:07.661Z,7.07
2019-04-23T07:14:46.279Z,7.80
2019-04-23T07:17:08.691Z,7.50
2019-04-23T07:19:42.513Z,7.03
2019-04-23T07:22:16.447Z,7.60
2019-04-23T07:24:47.186Z,7.17
2019-04-23T07:27:27.825Z,6.93
2019-04-23T07:30:03.288Z,7.10
2019-04-23T07:32:31.234Z,7.27
2019-04-23T07:35:07.089Z,6.30
2019-04-23T07:37:40.303Z,6.37
2019-04-23T07:43:09.155Z,7.63
2019-04-23T07:48:38.845Z,6.10
2019-04-23T07:51:14.214Z,6.00
2019-04-23T07:53:52.125Z,6.40
2019-04-23T07:56:24.083Z,6.40
2019-04-23T07:58:54.366Z,6.70
2019-04-23T08:01:27.076Z,6.53
2019-04-23T08:04:01.947Z,6.90
2019-04-23T08:06:38.616Z,6.03
2019-04-23T08:09:09.232Z,6.37
2019-04-23T08:11:56.792Z,5.70
2019-04-23T08:14:35.791Z,6.20
2019-04-23T08:16:43.842Z,6.27
2019-04-23T08:19:25.519Z,5.93
2019-04-23T08:22:06.523Z,5.93
2019-04-23T08:27:43.974Z,5.60
2019-04-23T08:30:17.721Z,5.78
2019-04-23T08:32:57.425Z,5.75
2019-04-23T08:35:27.328Z,6.20
2019-04-23T08:38:11.672Z,5.67
2019-04-23T08:40:36.911Z,5.77
2019-04-23T08:43:36.664Z,5.77
2019-04-23T08:46:26.736Z,5.90
2019-04-23T08:49:01.807Z,5.37
2019-04-23T08:51:38.590Z,5.42
2019-04-23T08:53:59.350Z,5.60
2019-04-23T08:56:40.910Z,5.53
2019-04-23T08:59:11.056Z,5.43
2019-04-23T09:01:46.363Z,5.37
2019-04-23T09:04:09.277Z,4.72
2019-04-23T09:06:47.943Z,5.73
2019-04-23T09:09:21.986Z,5.25
2019-04-23T09:14:20.104Z,4.90
2019-04-23T09:17:04.828Z,5.30
2019-04-23T09:19:45.574Z,5.90
2019-04-23T09:22:16.631Z,5.20
2019-04-23T09:24:40.033Z,5.08
2019-04-23T09:27:23.508Z,4.90
2019-04-23T09:29:51.418Z,5.07
2019-04-23T09:32:36.401Z,4.83
2019-04-23T09:35:32.593Z,5.05
2019-04-23T09:38:29.462Z,4.73
2019-04-23T09:41:27.015Z,4.93
2019-04-23T09:44:41.117Z,5.43
2019-04-23T09:47:12.952Z,5.33
2019-04-23T09:54:58.587Z,5.10
2019-04-23T09:57:17.122Z,5.17
2019-04-23T10:00:00.751Z,4.83
2019-04-23T10:02:26.392Z,4.90
2019-04-23T10:04:57.476Z,5.22
2019-04-23T10:07:24.614Z,5.08
2019-04-23T10:09:47.889Z,5.50
2019-04-23T10:12:20.053Z,5.00
2019-04-23T10:15:01.347Z,5.10
2019-04-23T10:17:26.271Z,4.80
2019-04-23T10:19:58.338Z,5.63
2019-04-23T10:22:33.678Z,5.10
2019-04-23T10:25:03.643Z,5.57
2019-04-23T10:27:35.180Z,5.45
2019-04-23T10:30:09.980Z,4.92
2019-04-23T10:32:43.199Z,4.97
2019-04-23T10:35:29.254Z,5.10
2019-04-23T10:37:56.585Z,4.90
2019-04-23T10:40:28.207Z,5.03
2019-04-23T10:42:57.901Z,4.50
2019-04-23T10:45:57.178Z,5.20
2019-04-23T10:49:31.945Z,5.47
2019-04-23T10:52:02.921Z,4.70
2019-04-23T10:57:16.239Z,5.22
2019-04-23T10:59:40.241Z,5.25
2019-04-23T11:10:05.316Z,4.60
2019-04-23T11:15:44.224Z,5.20
2019-04-23T11:18:12.241Z,5.07
2019-04-23T11:20:48.010Z,5.07
2019-04-23T11:23:01.448Z,4.73
2019-04-23T11:25:42.599Z,4.70
2019-04-23T11:28:38.440Z,5.00
2019-04-23T11:30:55.792Z,5.00
2019-04-23T11:33:54.355Z,4.90
2019-04-23T11:41:22.847Z,4.67
2019-04-23T11:43:50.776Z,5.23
2019-04-23T11:56:51.477Z,5.00
2019-04-23T11:59:11.007Z,5.60
2019-04-23T12:04:55.887Z,4.80
2019-04-23T12:07:33.986Z,4.60
2019-04-23T12:10:23.545Z,5.60
2019-04-23T12:12:44.768Z,4.83
2019-04-23T12:20:33.604Z,5.20
2019-04-23T12:23:12.203Z,4.50
2019-04-23T12:28:14.120Z,4.43
2019-04-23T12:30:45.400Z,5.30
2019-04-23T12:33:32.180Z,5.10
2019-04-23T12:35:55.236Z,4.50
2019-04-23T12:38:27.040Z,4.77
2019-04-23T12:40:56.407Z,4.70
2019-04-23T12:43:30.684Z,4.40
2019-04-23T12:46:12.064Z,4.80
2019-04-23T12:51:17.129Z,4.40
2019-04-23T12:53:39.925Z,4.75
2019-04-23T12:56:36.223Z,5.83
2019-04-23T12:58:47.735Z,5.28
2019-04-23T13:01:32.748Z,4.87
2019-04-23T13:03:50.815Z,5.33
2019-04-23T13:06:27.811Z,5.27
2019-04-23T13:09:19.731Z,5.30
2019-04-23T13:14:31.887Z,5.03
2019-04-23T13:17:22.192Z,5.47
2019-04-23T13:22:16.474Z,5.93
2019-04-23T13:25:20.205Z,5.27
2019-04-23T13:34:11.053Z,4.60
2019-04-23T13:35:46.702Z,5.90
2019-04-23T13:38:28.762Z,6.33
2019-04-23T13:43:19.541Z,6.17
2019-04-23T13:48:15.158Z,6.83
2019-04-23T13:51:14.293Z,5.60
2019-04-23T13:53:40.792Z,6.30
2019-04-23T13:56:05.084Z,6.08
2019-04-23T14:11:26.013Z,6.00
2019-04-23T14:14:08.206Z,6.15
2019-04-23T14:16:35.761Z,6.20
2019-04-23T14:19:02.569Z,7.00
2019-04-23T14:26:41.808Z,6.20
2019-04-23T14:29:22.935Z,7.13
2019-04-23T14:31:54.210Z,6.27
2019-04-23T14:34:50.861Z,6.40
2019-04-23T14:37:06.206Z,6.53
2019-04-23T14:42:14.556Z,6.17
2019-04-23T14:44:56.698Z,6.50
2019-04-23T14:50:24.700Z,6.63
2019-04-23T14:52:44.062Z,6.20
2019-04-23T14:55:40.176Z,6.42
2019-04-23T14:57:58.704Z,6.70
2019-04-23T15:00:31.563Z,6.87
2019-04-23T15:02:59.121Z,6.80
2019-04-23T15:05:38.604Z,7.23
2019-04-23T15:07:57.715Z,6.62
2019-04-23T15:10:41.322Z,7.57
2019-04-23T15:13:06.845Z,6.90
2019-04-23T15:15:44.185Z,7.67
2019-04-23T15:18:44.491Z,6.70
2019-04-23T15:27:22.726Z,6.90
2019-04-23T15:27:45.583Z,7.50
2019-04-23T15:28:30.016Z,7.00
2019-04-23T15:31:28.513Z,6.90
2019-04-23T15:34:15.945Z,7.30
2019-04-23T15:39:16.911Z,7.20
2019-04-23T15:41:49.458Z,8.43
2019-04-23T15:46:47.096Z,7.53
2019-04-23T15:49:22.975Z,6.45
2019-04-23T15:51:57.918Z,7.10
2019-04-23T15:54:35.162Z,6.83
2019-04-23T15:57:05.576Z,6.50
2019-04-23T16:01:43.855Z,7.30
2019-04-23T16:04:17.597Z,7.33
2019-04-23T16:06:49.393Z,7.95
2019-04-23T16:09:56.541Z,7.67
2019-04-23T16:12:17.103Z,6.80
2019-04-23T16:15:03.368Z,7.13
2019-04-23T16:17:35.565Z,7.73
2019-04-23T16:23:00.963Z,7.70
2019-04-23T16:25:17.330Z,7.20
2019-04-23T16:28:00.038Z,7.60
2019-04-23T16:30:25.482Z,8.47
2019-04-23T16:35:58.472Z,7.40
2019-04-23T16:38:32.522Z,8.03
2019-04-23T16:40:57.197Z,7.17
2019-04-23T16:43:38.234Z,7.87
2019-04-23T16:46:15.902Z,7.60
2019-04-23T16:48:49.228Z,9.03
2019-04-23T16:51:27.875Z,7.67
2019-04-23T16:53:44.707Z,8.30
2019-04-23T16:56:27.451Z,7.97
2019-04-23T16:58:57.924Z,8.43
2019-04-23T17:01:23.201Z,8.70
2019-04-23T17:04:08.263Z,8.87
2019-04-23T17:06:30.949Z,8.70
2019-04-23T17:09:15.743Z,8.18
2019-04-23T17:11:41.792Z,8.20
2019-04-23T17:14:16.285Z,8.83
2019-04-23T17:16:42.672Z,8.98
2019-04-23T17:19:26.228Z,9.48
2019-04-23T17:22:01.190Z,9.00
2019-04-23T17:24:25.833Z,9.43
2019-04-23T17:27:11.077Z,9.70
2019-04-23T17:29:35.154Z,9.53
2019-04-23T17:32:10.078Z,9.00
2019-04-23T17:34:54.660Z,9.03
2019-04-23T17:37:32.901Z,10.53
2019-04-23T17:43:01.590Z,8.83
2019-04-23T17:45:35.863Z,8.43
2019-04-23T17:48:27.392Z,9.23
2019-04-23T17:51:10.936Z,8.53
2019-04-23T17:53:51.211Z,8.98
2019-04-23T17:56:35.908Z,8.70
2019-04-23T17:59:04.368Z,9.17
2019-04-23T18:09:11.181Z,9.20
2019-04-23T18:11:44.501Z,8.43
2019-04-23T18:14:13.246Z,8.13
2019-04-23T18:16:47.965Z,8.77
2019-04-23T18:22:24.496Z,8.80
2019-04-23T18:25:04.341Z,8.07
2019-04-23T18:27:33.095Z,9.13
2019-04-23T18:30:42.176Z,8.70
2019-04-23T18:33:49.081Z,10.33
2019-04-23T18:35:43.934Z,9.48
2019-04-23T18:38:25.710Z,9.00
2019-04-23T18:58:54.561Z,8.00
2019-04-23T19:01:27.968Z,9.87
2019-04-23T19:04:33.265Z,8.03
2019-04-23T19:06:50.757Z,8.27
2019-04-23T19:13:18.798Z,8.70
2019-04-23T19:21:00.712Z,8.10
2019-04-23T19:26:06.654Z,9.03
2019-04-23T19:31:25.884Z,9.67
2019-04-23T19:34:24.607Z,9.60
2019-04-23T19:36:54.278Z,9.27
2019-04-23T19:39:26.443Z,9.67
2019-04-23T19:44:24.237Z,9.67
2019-04-23T19:47:09.254Z,9.77
2019-04-23T19:52:00.983Z,9.33
2019-04-23T19:59:44.493Z,9.60
2019-04-23T20:02:18.591Z,11.07
2019-04-23T20:04:52.220Z,9.70
2019-04-23T20:07:32.973Z,9.93
2019-04-23T20:09:52.056Z,10.80
2019-04-23T20:12:40.791Z,10.03
2019-04-23T20:14:56.180Z,10.32
2019-04-23T20:20:04.416Z,10.03
2019-04-23T20:22:51.218Z,10.73
2019-04-23T20:25:46.997Z,11.10
2019-04-23T20:27:52.292Z,9.97
2019-04-23T20:30:46.962Z,10.77
2019-04-23T20:36:17.587Z,10.83
2019-04-23T20:38:54.780Z,10.13
2019-04-23T20:43:55.599Z,10.60
2019-04-23T20:48:56.477Z,10.27
2019-04-23T20:51:33.803Z,10.43
2019-04-23T20:54:02.399Z,10.17
2019-04-23T20:56:34.403Z,10.90
2019-04-23T20:59:04.671Z,9.90
2019-04-23T21:01:50.021Z,10.83
2019-04-23T21:04:17.607Z,10.17
2019-04-23T21:06:56.531Z,10.80
2019-04-23T21:09:51.226Z,10.87
2019-04-23T21:12:16.223Z,10.07
2019-04-23T21:14:48.765Z,10.40
2019-04-23T21:17:04.915Z,9.43
2019-04-23T21:19:50.486Z,10.90
2019-04-23T21:22:13.700Z,10.63
2019-04-23T21:24:53.129Z,10.10
2019-04-23T21:27:38.550Z,9.83
2019-04-23T21:30:03.927Z,9.70
2019-04-23T21:32:42.169Z,10.67
2019-04-23T21:35:15.944Z,10.40
2019-04-23T21:37:54.297Z,9.75
2019-04-23T21:43:47.418Z,9.80
2019-04-23T21:46:15.926Z,9.68
2019-04-23T21:51:24.465Z,9.90
2019-04-23T21:53:52.672Z,9.63
2019-04-23T21:56:21.579Z,9.53
2019-04-23T21:58:57.993Z,9.17
2019-04-23T22:01:32.120Z,8.83
2019-04-23T22:06:42.966Z,11.48
2019-04-23T22:24:19.872Z,8.03
2019-04-23T22:26:57.628Z,8.07
2019-04-23T22:29:33.043Z,8.40
2019-04-23T22:31:58.146Z,7.93
2019-04-23T22:34:47.134Z,8.00
2019-04-23T22:39:45.722Z,7.63
2019-04-23T22:42:24.758Z,7.83
2019-04-23T22:45:05.592Z,6.93
2019-04-23T22:47:28.366Z,7.23
2019-04-23T22:57:56.010Z,7.77
2019-04-23T23:00:14.354Z,7.00
2019-04-23T23:03:06.459Z,6.73
2019-04-23T23:08:42.179Z,7.10
2019-04-23T23:13:57.170Z,6.93
2019-04-23T23:16:14.802Z,7.07
2019-04-23T23:18:49.117Z,7.03
2019-04-23T23:21:20.464Z,7.60
2019-04-23T23:23:52.844Z,6.85
2019-04-23T23:26:35.930Z,7.33
2019-04-23T23:29:15.459Z,7.37
2019-04-23T23:31:38.097Z,7.23
2019-04-23T23:34:08.933Z,7.00
2019-04-23T23:36:46.851Z,7.10
2019-04-23T23:39:22.611Z,7.47
2019-04-23T23:42:02.930Z,7.13
2019-04-23T23:49:27.978Z,6.93
2019-04-23T23:51:57.876Z,9.47
2019-04-23T23:54:56.221Z,7.17
2019-04-23T23:57:12.100Z,7.07
